sensor_id;sensor_type;location;lat;lon;timestamp;pressure;altitude;pressure_sealevel;temperature;humidity
33625;BME280;19962;47.820;1.930;2023-06-19T00:00:37;100080.81;;;22.84;77.28
33625;BME280;19962;47.820;1.930;2023-06-19T00:03:04;100091.81;;;22.80;77.63
33625;BME280;19962;47.820;1.930;2023-06-19T00:05:31;100095.72;;;22.71;77.88
33625;BME280;19962;47.820;1.930;2023-06-19T00:07:57;100098.84;;;22.69;78.08
33625;BME280;19962;47.820;1.930;2023-06-19T00:10:23;100107.22;;;22.69;77.96
33625;BME280;19962;47.820;1.930;2023-06-19T00:12:49;100110.84;;;22.70;77.81
33625;BME280;19962;47.820;1.930;2023-06-19T00:15:15;100124.13;;;22.64;78.07
33625;BME280;19962;47.820;1.930;2023-06-19T00:17:42;100117.88;;;22.67;77.86
33625;BME280;19962;47.820;1.930;2023-06-19T00:20:08;100127.50;;;22.75;77.33
33625;BME280;19962;47.820;1.930;2023-06-19T00:22:35;100129.69;;;22.86;76.93
33625;BME280;19962;47.820;1.930;2023-06-19T00:25:01;100127.75;;;22.95;76.12
33625;BME280;19962;47.820;1.930;2023-06-19T00:27:27;100143.00;;;22.89;75.98
33625;BME280;19962;47.820;1.930;2023-06-19T00:29:53;100131.22;;;23.01;75.63
33625;BME280;19962;47.820;1.930;2023-06-19T00:32:20;100136.25;;;23.12;75.03
33625;BME280;19962;47.820;1.930;2023-06-19T00:34:46;100132.91;;;23.02;75.32
33625;BME280;19962;47.820;1.930;2023-06-19T00:37:12;100132.66;;;22.90;75.58
33625;BME280;19962;47.820;1.930;2023-06-19T00:39:41;100142.94;;;22.72;76.42
33625;BME280;19962;47.820;1.930;2023-06-19T00:42:07;100151.66;;;22.71;76.86
33625;BME280;19962;47.820;1.930;2023-06-19T00:44:33;100146.38;;;22.69;77.26
33625;BME280;19962;47.820;1.930;2023-06-19T00:47:02;100137.97;;;22.69;77.04
33625;BME280;19962;47.820;1.930;2023-06-19T00:49:31;100142.16;;;22.58;77.34
33625;BME280;19962;47.820;1.930;2023-06-19T00:51:57;100138.03;;;22.56;77.45
33625;BME280;19962;47.820;1.930;2023-06-19T00:54:24;100130.03;;;22.63;77.32
33625;BME280;19962;47.820;1.930;2023-06-19T00:56:51;100124.00;;;22.69;76.64
33625;BME280;19962;47.820;1.930;2023-06-19T00:59:19;100125.53;;;22.53;77.24
33625;BME280;19962;47.820;1.930;2023-06-19T01:01:46;100118.13;;;22.49;77.58
33625;BME280;19962;47.820;1.930;2023-06-19T01:04:13;100109.00;;;22.65;76.70
33625;BME280;19962;47.820;1.930;2023-06-19T01:06:54;100111.38;;;22.80;75.79
33625;BME280;19962;47.820;1.930;2023-06-19T01:09:33;100129.44;;;22.74;75.95
33625;BME280;19962;47.820;1.930;2023-06-19T01:12:19;100120.56;;;22.72;75.88
33625;BME280;19962;47.820;1.930;2023-06-19T01:15:00;100121.16;;;22.61;76.67
33625;BME280;19962;47.820;1.930;2023-06-19T01:17:29;100129.78;;;22.51;77.03
33625;BME280;19962;47.820;1.930;2023-06-19T01:19:59;100130.88;;;22.41;77.36
33625;BME280;19962;47.820;1.930;2023-06-19T01:22:32;100127.66;;;22.34;78.03
33625;BME280;19962;47.820;1.930;2023-06-19T01:24:58;100132.56;;;22.29;78.06
33625;BME280;19962;47.820;1.930;2023-06-19T01:27:25;100130.06;;;22.27;78.03
33625;BME280;19962;47.820;1.930;2023-06-19T01:29:56;100132.38;;;22.25;78.25
33625;BME280;19962;47.820;1.930;2023-06-19T01:34:57;100127.03;;;22.15;78.96
33625;BME280;19962;47.820;1.930;2023-06-19T01:37:25;100133.88;;;22.09;79.13
33625;BME280;19962;47.820;1.930;2023-06-19T01:39:56;100128.06;;;22.19;78.88
33625;BME280;19962;47.820;1.930;2023-06-19T01:42:22;100139.25;;;22.19;78.58
33625;BME280;19962;47.820;1.930;2023-06-19T01:44:49;100128.63;;;22.08;78.96
33625;BME280;19962;47.820;1.930;2023-06-19T01:47:16;100137.81;;;22.08;78.69
33625;BME280;19962;47.820;1.930;2023-06-19T01:49:48;100135.31;;;22.07;79.31
33625;BME280;19962;47.820;1.930;2023-06-19T01:52:15;100154.56;;;22.08;78.94
33625;BME280;19962;47.820;1.930;2023-06-19T01:54:41;100143.66;;;21.98;79.31
33625;BME280;19962;47.820;1.930;2023-06-19T01:57:07;100149.66;;;21.92;79.70
33625;BME280;19962;47.820;1.930;2023-06-19T01:59:33;100154.41;;;21.91;79.75
33625;BME280;19962;47.820;1.930;2023-06-19T02:01:59;100149.00;;;22.08;78.94
33625;BME280;19962;47.820;1.930;2023-06-19T02:04:26;100136.63;;;22.23;78.00
33625;BME280;19962;47.820;1.930;2023-06-19T02:06:52;100130.66;;;22.38;77.22
33625;BME280;19962;47.820;1.930;2023-06-19T02:09:18;100136.75;;;22.18;77.74
33625;BME280;19962;47.820;1.930;2023-06-19T02:11:44;100141.44;;;22.09;78.18
33625;BME280;19962;47.820;1.930;2023-06-19T02:14:11;100147.47;;;22.02;78.84
33625;BME280;19962;47.820;1.930;2023-06-19T02:16:37;100146.75;;;21.97;79.04
33625;BME280;19962;47.820;1.930;2023-06-19T02:19:03;100138.91;;;21.99;78.96
33625;BME280;19962;47.820;1.930;2023-06-19T02:21:29;100139.22;;;21.97;79.01
33625;BME280;19962;47.820;1.930;2023-06-19T02:23:56;100147.91;;;21.96;79.18
33625;BME280;19962;47.820;1.930;2023-06-19T02:26:22;100146.75;;;21.97;79.00
33625;BME280;19962;47.820;1.930;2023-06-19T02:28:48;100137.66;;;21.91;79.53
33625;BME280;19962;47.820;1.930;2023-06-19T02:31:14;100132.41;;;21.90;79.39
33625;BME280;19962;47.820;1.930;2023-06-19T02:33:40;100134.38;;;21.89;79.50
33625;BME280;19962;47.820;1.930;2023-06-19T02:36:06;100146.88;;;21.92;79.14
33625;BME280;19962;47.820;1.930;2023-06-19T02:38:32;100138.69;;;21.95;79.12
33625;BME280;19962;47.820;1.930;2023-06-19T02:40:58;100148.22;;;21.94;79.14
33625;BME280;19962;47.820;1.930;2023-06-19T02:43:27;100145.13;;;21.82;79.67
33625;BME280;19962;47.820;1.930;2023-06-19T02:45:53;100145.72;;;21.93;79.37
33625;BME280;19962;47.820;1.930;2023-06-19T02:48:19;100142.69;;;21.81;79.61
33625;BME280;19962;47.820;1.930;2023-06-19T02:50:45;100132.44;;;21.76;80.04
33625;BME280;19962;47.820;1.930;2023-06-19T02:53:11;100136.69;;;21.74;79.63
33625;BME280;19962;47.820;1.930;2023-06-19T02:55:37;100128.00;;;21.75;79.72
33625;BME280;19962;47.820;1.930;2023-06-19T02:58:03;100129.53;;;21.81;79.38
33625;BME280;19962;47.820;1.930;2023-06-19T03:00:29;100138.31;;;21.75;79.58
33625;BME280;19962;47.820;1.930;2023-06-19T03:02:55;100132.94;;;21.78;79.72
33625;BME280;19962;47.820;1.930;2023-06-19T03:05:22;100130.63;;;21.94;78.90
33625;BME280;19962;47.820;1.930;2023-06-19T03:07:48;100136.19;;;21.94;78.86
33625;BME280;19962;47.820;1.930;2023-06-19T03:10:14;100144.69;;;21.89;79.07
33625;BME280;19962;47.820;1.930;2023-06-19T03:12:40;100147.59;;;21.97;78.68
33625;BME280;19962;47.820;1.930;2023-06-19T03:15:06;100143.34;;;22.00;78.37
33625;BME280;19962;47.820;1.930;2023-06-19T03:17:33;100139.72;;;21.99;78.10
33625;BME280;19962;47.820;1.930;2023-06-19T03:19:59;100130.84;;;21.97;77.96
33625;BME280;19962;47.820;1.930;2023-06-19T03:22:25;100135.97;;;22.04;77.91
33625;BME280;19962;47.820;1.930;2023-06-19T03:24:51;100138.22;;;22.15;77.23
33625;BME280;19962;47.820;1.930;2023-06-19T03:27:18;100136.78;;;22.04;77.72
33625;BME280;19962;47.820;1.930;2023-06-19T03:29:44;100144.78;;;21.97;78.02
33625;BME280;19962;47.820;1.930;2023-06-19T03:32:10;100137.28;;;21.84;78.83
33625;BME280;19962;47.820;1.930;2023-06-19T03:34:36;100138.72;;;21.68;80.03
33625;BME280;19962;47.820;1.930;2023-06-19T03:37:02;100139.78;;;21.59;80.31
33625;BME280;19962;47.820;1.930;2023-06-19T03:39:28;100137.31;;;21.57;80.26
33625;BME280;19962;47.820;1.930;2023-06-19T03:41:54;100134.63;;;21.52;80.93
33625;BME280;19962;47.820;1.930;2023-06-19T03:44:21;100127.78;;;21.45;81.09
33625;BME280;19962;47.820;1.930;2023-06-19T03:46:47;100127.38;;;21.51;81.01
33625;BME280;19962;47.820;1.930;2023-06-19T03:49:13;100131.59;;;21.49;81.15
33625;BME280;19962;47.820;1.930;2023-06-19T03:51:39;100129.56;;;21.41;81.21
33625;BME280;19962;47.820;1.930;2023-06-19T03:54:05;100131.22;;;21.42;81.36
33625;BME280;19962;47.820;1.930;2023-06-19T03:56:31;100129.00;;;21.66;80.30
33625;BME280;19962;47.820;1.930;2023-06-19T03:58:57;100121.31;;;21.85;78.91
33625;BME280;19962;47.820;1.930;2023-06-19T04:01:23;100122.31;;;22.02;77.99
33625;BME280;19962;47.820;1.930;2023-06-19T04:03:50;100135.66;;;22.05;78.04
33625;BME280;19962;47.820;1.930;2023-06-19T04:06:16;100142.44;;;21.77;79.45
33625;BME280;19962;47.820;1.930;2023-06-19T04:08:42;100147.66;;;21.70;79.78
33625;BME280;19962;47.820;1.930;2023-06-19T04:11:08;100158.06;;;21.65;79.98
33625;BME280;19962;47.820;1.930;2023-06-19T04:13:34;100156.63;;;21.67;80.04
33625;BME280;19962;47.820;1.930;2023-06-19T04:16:00;100155.28;;;21.65;80.15
33625;BME280;19962;47.820;1.930;2023-06-19T04:18:27;100156.09;;;21.79;79.43
33625;BME280;19962;47.820;1.930;2023-06-19T04:20:53;100155.13;;;21.97;78.11
33625;BME280;19962;47.820;1.930;2023-06-19T04:23:20;100164.53;;;22.01;78.32
33625;BME280;19962;47.820;1.930;2023-06-19T04:25:46;100164.56;;;21.87;78.80
33625;BME280;19962;47.820;1.930;2023-06-19T04:28:12;100162.31;;;21.76;79.35
33625;BME280;19962;47.820;1.930;2023-06-19T04:30:38;100165.63;;;21.78;79.40
33625;BME280;19962;47.820;1.930;2023-06-19T04:33:07;100164.50;;;21.65;79.61
33625;BME280;19962;47.820;1.930;2023-06-19T04:35:34;100173.47;;;21.62;80.05
33625;BME280;19962;47.820;1.930;2023-06-19T04:38:06;100160.16;;;21.73;79.70
33625;BME280;19962;47.820;1.930;2023-06-19T04:40:32;100168.94;;;21.66;80.01
33625;BME280;19962;47.820;1.930;2023-06-19T04:43:00;100164.78;;;21.64;80.10
33625;BME280;19962;47.820;1.930;2023-06-19T04:45:27;100160.03;;;21.64;80.80
33625;BME280;19962;47.820;1.930;2023-06-19T04:47:53;100163.13;;;21.63;81.00
33625;BME280;19962;47.820;1.930;2023-06-19T04:50:19;100152.91;;;21.58;81.25
33625;BME280;19962;47.820;1.930;2023-06-19T04:52:45;100155.38;;;21.60;80.84
33625;BME280;19962;47.820;1.930;2023-06-19T04:55:13;100151.97;;;21.76;80.17
33625;BME280;19962;47.820;1.930;2023-06-19T04:57:39;100146.75;;;21.97;79.15
33625;BME280;19962;47.820;1.930;2023-06-19T05:00:07;100148.22;;;21.94;79.03
33625;BME280;19962;47.820;1.930;2023-06-19T05:02:35;100148.28;;;22.03;78.50
33625;BME280;19962;47.820;1.930;2023-06-19T05:05:02;100132.03;;;22.05;78.17
33625;BME280;19962;47.820;1.930;2023-06-19T05:07:29;100145.09;;;21.96;79.23
33625;BME280;19962;47.820;1.930;2023-06-19T05:09:56;100150.09;;;21.85;79.64
33625;BME280;19962;47.820;1.930;2023-06-19T05:12:22;100153.00;;;21.80;79.72
33625;BME280;19962;47.820;1.930;2023-06-19T05:14:48;100148.22;;;21.94;79.50
33625;BME280;19962;47.820;1.930;2023-06-19T05:17:14;100143.28;;;21.78;80.42
33625;BME280;19962;47.820;1.930;2023-06-19T05:19:40;100143.72;;;21.71;81.55
33625;BME280;19962;47.820;1.930;2023-06-19T05:22:06;100145.56;;;21.76;81.76
33625;BME280;19962;47.820;1.930;2023-06-19T05:24:33;100148.44;;;21.84;81.68
33625;BME280;19962;47.820;1.930;2023-06-19T05:26:59;100154.81;;;21.98;80.92
33625;BME280;19962;47.820;1.930;2023-06-19T05:29:25;100138.16;;;22.29;79.20
33625;BME280;19962;47.820;1.930;2023-06-19T05:31:51;100133.25;;;22.34;79.49
33625;BME280;19962;47.820;1.930;2023-06-19T05:34:18;100130.28;;;22.31;80.33
33625;BME280;19962;47.820;1.930;2023-06-19T05:36:44;100140.13;;;22.28;79.99
33625;BME280;19962;47.820;1.930;2023-06-19T05:39:13;100139.31;;;22.50;78.55
33625;BME280;19962;47.820;1.930;2023-06-19T05:41:39;100143.19;;;22.62;77.63
33625;BME280;19962;47.820;1.930;2023-06-19T05:44:05;100130.75;;;22.68;77.37
33625;BME280;19962;47.820;1.930;2023-06-19T05:46:31;100133.25;;;22.48;79.83
33625;BME280;19962;47.820;1.930;2023-06-19T05:48:57;100131.66;;;22.42;80.03
33625;BME280;19962;47.820;1.930;2023-06-19T05:51:24;100123.25;;;22.55;79.29
33625;BME280;19962;47.820;1.930;2023-06-19T05:53:50;100112.53;;;22.79;77.66
33625;BME280;19962;47.820;1.930;2023-06-19T05:56:16;100108.81;;;22.92;77.80
33625;BME280;19962;47.820;1.930;2023-06-19T05:58:43;100115.03;;;22.89;77.74
33625;BME280;19962;47.820;1.930;2023-06-19T06:01:09;100113.50;;;23.05;76.29
33625;BME280;19962;47.820;1.930;2023-06-19T06:03:35;100108.63;;;23.19;75.31
33625;BME280;19962;47.820;1.930;2023-06-19T06:06:02;100117.88;;;23.28;74.67
33625;BME280;19962;47.820;1.930;2023-06-19T06:08:30;100116.41;;;23.31;74.81
33625;BME280;19962;47.820;1.930;2023-06-19T06:10:57;100121.66;;;23.24;74.94
33625;BME280;19962;47.820;1.930;2023-06-19T06:13:23;100113.94;;;23.29;74.58
33625;BME280;19962;47.820;1.930;2023-06-19T06:15:50;100115.59;;;23.30;75.57
33625;BME280;19962;47.820;1.930;2023-06-19T06:18:16;100119.25;;;23.09;78.73
33625;BME280;19962;47.820;1.930;2023-06-19T06:20:42;100113.97;;;23.07;77.95
33625;BME280;19962;47.820;1.930;2023-06-19T06:23:08;100116.13;;;23.10;78.86
33625;BME280;19962;47.820;1.930;2023-06-19T06:25:34;100119.44;;;23.12;77.83
33625;BME280;19962;47.820;1.930;2023-06-19T06:28:01;100118.53;;;23.25;77.41
33625;BME280;19962;47.820;1.930;2023-06-19T06:30:27;100114.44;;;23.31;77.37
33625;BME280;19962;47.820;1.930;2023-06-19T06:32:54;100114.28;;;23.36;77.99
33625;BME280;19962;47.820;1.930;2023-06-19T06:35:20;100114.94;;;23.33;77.37
33625;BME280;19962;47.820;1.930;2023-06-19T06:37:46;100120.69;;;23.28;78.43
33625;BME280;19962;47.820;1.930;2023-06-19T06:40:15;100140.78;;;23.30;77.56
33625;BME280;19962;47.820;1.930;2023-06-19T06:42:41;100129.44;;;23.35;77.26
33625;BME280;19962;47.820;1.930;2023-06-19T06:45:07;100135.22;;;23.39;76.96
33625;BME280;19962;47.820;1.930;2023-06-19T06:47:35;100139.00;;;23.43;77.17
33625;BME280;19962;47.820;1.930;2023-06-19T06:50:01;100138.56;;;23.58;78.98
33625;BME280;19962;47.820;1.930;2023-06-19T06:52:27;100143.50;;;23.61;79.59
33625;BME280;19962;47.820;1.930;2023-06-19T06:54:53;100141.34;;;23.49;79.29
33625;BME280;19962;47.820;1.930;2023-06-19T06:57:20;100140.22;;;23.59;78.02
33625;BME280;19962;47.820;1.930;2023-06-19T06:59:46;100144.84;;;23.63;78.94
33625;BME280;19962;47.820;1.930;2023-06-19T07:02:12;100140.88;;;23.56;79.24
33625;BME280;19962;47.820;1.930;2023-06-19T07:04:38;100145.31;;;23.48;78.92
33625;BME280;19962;47.820;1.930;2023-06-19T07:07:04;100147.94;;;23.53;79.09
33625;BME280;19962;47.820;1.930;2023-06-19T07:09:32;100160.16;;;23.66;77.57
33625;BME280;19962;47.820;1.930;2023-06-19T07:11:58;100167.44;;;23.75;77.03
33625;BME280;19962;47.820;1.930;2023-06-19T07:14:24;100161.16;;;23.61;77.36
33625;BME280;19962;47.820;1.930;2023-06-19T07:16:50;100161.84;;;23.75;77.07
33625;BME280;19962;47.820;1.930;2023-06-19T07:19:16;100149.66;;;23.88;76.51
33625;BME280;19962;47.820;1.930;2023-06-19T07:21:43;100159.59;;;23.94;75.52
33625;BME280;19962;47.820;1.930;2023-06-19T07:24:09;100152.66;;;24.00;75.95
33625;BME280;19962;47.820;1.930;2023-06-19T07:26:35;100151.03;;;23.99;75.56
33625;BME280;19962;47.820;1.930;2023-06-19T07:29:02;100151.66;;;23.96;75.18
33625;BME280;19962;47.820;1.930;2023-06-19T07:31:28;100145.25;;;23.96;76.10
33625;BME280;19962;47.820;1.930;2023-06-19T07:33:54;100146.69;;;23.76;77.37
33625;BME280;19962;47.820;1.930;2023-06-19T07:36:20;100150.28;;;23.68;78.29
33625;BME280;19962;47.820;1.930;2023-06-19T07:38:46;100154.41;;;23.71;79.10
33625;BME280;19962;47.820;1.930;2023-06-19T07:41:12;100146.84;;;23.80;77.47
33625;BME280;19962;47.820;1.930;2023-06-19T07:43:39;100137.00;;;23.99;76.54
33625;BME280;19962;47.820;1.930;2023-06-19T07:46:05;100146.72;;;24.02;76.40
33625;BME280;19962;47.820;1.930;2023-06-19T07:48:31;100134.88;;;24.13;76.06
33625;BME280;19962;47.820;1.930;2023-06-19T07:50:57;100138.66;;;24.17;75.80
33625;BME280;19962;47.820;1.930;2023-06-19T07:53:23;100119.38;;;24.24;75.59
33625;BME280;19962;47.820;1.930;2023-06-19T07:55:49;100127.13;;;24.36;75.51
33625;BME280;19962;47.820;1.930;2023-06-19T07:58:15;100134.19;;;24.42;74.91
33625;BME280;19962;47.820;1.930;2023-06-19T08:00:42;100144.59;;;24.50;73.84
33625;BME280;19962;47.820;1.930;2023-06-19T08:03:08;100136.66;;;24.52;73.18
33625;BME280;19962;47.820;1.930;2023-06-19T08:05:34;100137.81;;;24.51;74.06
33625;BME280;19962;47.820;1.930;2023-06-19T08:08:00;100139.31;;;24.57;73.43
33625;BME280;19962;47.820;1.930;2023-06-19T08:10:27;100145.09;;;24.61;73.28
33625;BME280;19962;47.820;1.930;2023-06-19T08:12:53;100144.59;;;24.67;74.10
33625;BME280;19962;47.820;1.930;2023-06-19T08:15:19;100142.78;;;24.63;74.03
33625;BME280;19962;47.820;1.930;2023-06-19T08:17:46;100133.72;;;24.66;73.83
33625;BME280;19962;47.820;1.930;2023-06-19T08:20:13;100147.56;;;24.71;72.81
33625;BME280;19962;47.820;1.930;2023-06-19T08:22:39;100141.78;;;24.76;73.20
33625;BME280;19962;47.820;1.930;2023-06-19T08:25:05;100150.19;;;24.76;72.79
33625;BME280;19962;47.820;1.930;2023-06-19T08:27:31;100135.50;;;24.70;71.75
33625;BME280;19962;47.820;1.930;2023-06-19T08:29:57;100145.25;;;24.73;71.99
33625;BME280;19962;47.820;1.930;2023-06-19T08:32:23;100147.53;;;24.79;72.95
33625;BME280;19962;47.820;1.930;2023-06-19T08:34:49;100144.09;;;24.65;73.77
33625;BME280;19962;47.820;1.930;2023-06-19T08:37:16;100153.66;;;24.56;75.02
33625;BME280;19962;47.820;1.930;2023-06-19T08:39:44;100144.41;;;24.55;74.29
33625;BME280;19962;47.820;1.930;2023-06-19T08:42:10;100154.69;;;24.60;73.14
33625;BME280;19962;47.820;1.930;2023-06-19T08:44:36;100148.06;;;24.64;73.05
33625;BME280;19962;47.820;1.930;2023-06-19T08:47:03;100139.16;;;24.62;73.08
33625;BME280;19962;47.820;1.930;2023-06-19T08:49:31;100143.28;;;24.65;73.41
33625;BME280;19962;47.820;1.930;2023-06-19T08:51:59;100140.47;;;24.65;73.80
33625;BME280;19962;47.820;1.930;2023-06-19T08:54:25;100137.16;;;24.63;72.89
33625;BME280;19962;47.820;1.930;2023-06-19T08:56:51;100145.41;;;24.68;71.58
33625;BME280;19962;47.820;1.930;2023-06-19T08:59:20;100139.47;;;24.78;71.08
33625;BME280;19962;47.820;1.930;2023-06-19T09:01:51;100135.84;;;24.60;73.20
33625;BME280;19962;47.820;1.930;2023-06-19T09:04:22;100134.22;;;24.51;73.98
33625;BME280;19962;47.820;1.930;2023-06-19T09:06:54;100134.03;;;24.56;74.30
33625;BME280;19962;47.820;1.930;2023-06-19T09:09:23;100132.88;;;24.57;74.55
33625;BME280;19962;47.820;1.930;2023-06-19T09:12:04;100132.88;;;24.57;74.66
33625;BME280;19962;47.820;1.930;2023-06-19T09:14:41;100127.25;;;24.57;74.85
33625;BME280;19962;47.820;1.930;2023-06-19T09:17:11;100132.25;;;24.60;74.67
33625;BME280;19962;47.820;1.930;2023-06-19T09:19:38;100134.88;;;24.65;74.36
33625;BME280;19962;47.820;1.930;2023-06-19T09:22:07;100122.63;;;24.69;73.91
33625;BME280;19962;47.820;1.930;2023-06-19T09:24:38;100120.97;;;24.77;73.39
33625;BME280;19962;47.820;1.930;2023-06-19T09:27:13;100120.81;;;24.82;72.30
33625;BME280;19962;47.820;1.930;2023-06-19T09:29:46;100125.38;;;24.95;71.58
33625;BME280;19962;47.820;1.930;2023-06-19T09:32:21;100130.13;;;25.03;71.50
33625;BME280;19962;47.820;1.930;2023-06-19T09:34:48;100122.69;;;25.07;71.25
33625;BME280;19962;47.820;1.930;2023-06-19T09:37:15;100122.69;;;25.07;70.54
33625;BME280;19962;47.820;1.930;2023-06-19T09:39:42;100130.13;;;25.11;70.08
33625;BME280;19962;47.820;1.930;2023-06-19T09:42:09;100121.19;;;25.18;70.22
33625;BME280;19962;47.820;1.930;2023-06-19T09:44:42;100117.19;;;25.19;69.07
33625;BME280;19962;47.820;1.930;2023-06-19T09:47:20;100112.91;;;25.13;70.46
33625;BME280;19962;47.820;1.930;2023-06-19T09:49:55;100116.41;;;25.10;70.89
33625;BME280;19962;47.820;1.930;2023-06-19T09:52:22;100124.84;;;25.10;72.22
33625;BME280;19962;47.820;1.930;2023-06-19T09:54:53;100121.69;;;25.11;71.62
33625;BME280;19962;47.820;1.930;2023-06-19T09:57:21;100129.28;;;25.11;72.27
33625;BME280;19962;47.820;1.930;2023-06-19T09:59:50;100139.16;;;25.17;73.42
33625;BME280;19962;47.820;1.930;2023-06-19T10:02:20;100127.44;;;25.15;73.22
33625;BME280;19962;47.820;1.930;2023-06-19T10:04:55;100140.84;;;25.09;73.67
33625;BME280;19962;47.820;1.930;2023-06-19T10:07:23;100131.44;;;25.14;73.42
33625;BME280;19962;47.820;1.930;2023-06-19T10:10:23;100133.59;;;25.08;72.01
33625;BME280;19962;47.820;1.930;2023-06-19T10:12:49;100131.75;;;25.12;72.15
33625;BME280;19962;47.820;1.930;2023-06-19T10:15:21;100130.25;;;25.15;71.18
33625;BME280;19962;47.820;1.930;2023-06-19T10:18:04;100129.09;;;25.16;70.89
33625;BME280;19962;47.820;1.930;2023-06-19T10:20:31;100124.78;;;25.18;70.46
33625;BME280;19962;47.820;1.930;2023-06-19T10:25:40;100118.97;;;25.23;70.16
33625;BME280;19962;47.820;1.930;2023-06-19T10:28:30;100127.69;;;25.39;69.42
33625;BME280;19962;47.820;1.930;2023-06-19T10:31:07;100121.72;;;25.49;69.10
33625;BME280;19962;47.820;1.930;2023-06-19T10:33:35;100113.09;;;25.54;69.15
33625;BME280;19962;47.820;1.930;2023-06-19T10:36:14;100113.44;;;25.44;69.12
33625;BME280;19962;47.820;1.930;2023-06-19T10:38:41;100119.47;;;25.34;69.62
33625;BME280;19962;47.820;1.930;2023-06-19T10:41:18;100115.84;;;25.25;69.76
33625;BME280;19962;47.820;1.930;2023-06-19T10:44:02;100125.94;;;25.17;70.02
33625;BME280;19962;47.820;1.930;2023-06-19T10:46:34;100127.25;;;25.20;70.03
33625;BME280;19962;47.820;1.930;2023-06-19T10:49:03;100118.84;;;25.20;70.29
33625;BME280;19962;47.820;1.930;2023-06-19T10:51:40;100111.25;;;25.20;70.74
33625;BME280;19962;47.820;1.930;2023-06-19T10:54:07;100100.00;;;25.29;70.97
33625;BME280;19962;47.820;1.930;2023-06-19T10:56:34;100099.59;;;25.39;69.36
33625;BME280;19962;47.820;1.930;2023-06-19T10:59:01;100092.72;;;25.57;69.28
33625;BME280;19962;47.820;1.930;2023-06-19T11:04:03;100095.28;;;25.70;69.02
33625;BME280;19962;47.820;1.930;2023-06-19T11:06:29;100099.09;;;25.66;69.43
33625;BME280;19962;47.820;1.930;2023-06-19T11:08:56;100096.91;;;25.51;69.94
33625;BME280;19962;47.820;1.930;2023-06-19T11:11:22;100093.13;;;25.47;70.17
33625;BME280;19962;47.820;1.930;2023-06-19T11:13:48;100097.50;;;25.36;70.22
33625;BME280;19962;47.820;1.930;2023-06-19T11:16:15;100094.69;;;25.36;70.29
33625;BME280;19962;47.820;1.930;2023-06-19T11:18:41;100090.31;;;25.47;70.25
33625;BME280;19962;47.820;1.930;2023-06-19T11:21:07;100094.03;;;25.59;69.31
33625;BME280;19962;47.820;1.930;2023-06-19T11:23:33;100080.69;;;25.77;68.52
33625;BME280;19962;47.820;1.930;2023-06-19T11:26:06;100079.63;;;25.90;68.79
33625;BME280;19962;47.820;1.930;2023-06-19T11:28:32;100069.28;;;26.02;68.17
33625;BME280;19962;47.820;1.930;2023-06-19T11:31:00;100064.06;;;26.13;68.23
33625;BME280;19962;47.820;1.930;2023-06-19T11:33:27;100057.88;;;26.19;68.64
33625;BME280;19962;47.820;1.930;2023-06-19T11:35:54;100061.72;;;26.15;69.04
33625;BME280;19962;47.820;1.930;2023-06-19T11:38:25;100046.50;;;26.16;68.51
33625;BME280;19962;47.820;1.930;2023-06-19T11:40:52;100048.28;;;26.20;68.59
33625;BME280;19962;47.820;1.930;2023-06-19T11:43:29;100035.72;;;26.18;68.96
33625;BME280;19962;47.820;1.930;2023-06-19T11:46:03;100039.78;;;26.29;69.20
33625;BME280;19962;47.820;1.930;2023-06-19T11:48:30;100037.13;;;26.44;69.70
33625;BME280;19962;47.820;1.930;2023-06-19T11:50:56;100028.69;;;26.56;69.68
33625;BME280;19962;47.820;1.930;2023-06-19T11:53:24;100024.88;;;26.61;69.47
33625;BME280;19962;47.820;1.930;2023-06-19T11:55:51;100026.53;;;26.62;68.98
33625;BME280;19962;47.820;1.930;2023-06-19T11:58:17;100023.59;;;26.58;68.71
33625;BME280;19962;47.820;1.930;2023-06-19T12:00:45;100018.31;;;26.57;68.82
33625;BME280;19962;47.820;1.930;2023-06-19T12:03:11;100018.00;;;26.50;69.09
33625;BME280;19962;47.820;1.930;2023-06-19T12:05:38;100011.50;;;26.58;69.56
33625;BME280;19962;47.820;1.930;2023-06-19T12:08:04;100010.09;;;26.64;69.46
33625;BME280;19962;47.820;1.930;2023-06-19T12:10:35;100009.91;;;26.69;69.57
33625;BME280;19962;47.820;1.930;2023-06-19T12:13:01;100004.47;;;26.64;68.92
33625;BME280;19962;47.820;1.930;2023-06-19T12:15:27;99998.81;;;26.52;69.32
33625;BME280;19962;47.820;1.930;2023-06-19T12:17:54;99997.88;;;26.48;70.04
33625;BME280;19962;47.820;1.930;2023-06-19T12:20:20;100001.03;;;26.46;70.13
33625;BME280;19962;47.820;1.930;2023-06-19T12:22:46;99996.69;;;26.49;70.35
33625;BME280;19962;47.820;1.930;2023-06-19T12:25:12;99995.75;;;26.45;70.82
33625;BME280;19962;47.820;1.930;2023-06-19T12:27:38;100000.44;;;26.53;70.64
33625;BME280;19962;47.820;1.930;2023-06-19T12:30:05;99991.81;;;26.58;70.84
33625;BME280;19962;47.820;1.930;2023-06-19T12:32:31;99988.31;;;26.61;70.44
33625;BME280;19962;47.820;1.930;2023-06-19T12:34:57;99989.13;;;26.61;70.44
33625;BME280;19962;47.820;1.930;2023-06-19T12:37:24;99996.53;;;26.66;69.89
33625;BME280;19962;47.820;1.930;2023-06-19T12:39:53;99986.44;;;26.65;70.42
33625;BME280;19962;47.820;1.930;2023-06-19T12:42:19;99978.47;;;26.67;69.90
33625;BME280;19962;47.820;1.930;2023-06-19T12:44:45;99979.88;;;26.61;69.35
33625;BME280;19962;47.820;1.930;2023-06-19T12:47:12;99974.63;;;26.51;70.00
33625;BME280;19962;47.820;1.930;2023-06-19T12:49:38;99980.88;;;26.44;69.67
33625;BME280;19962;47.820;1.930;2023-06-19T12:52:04;99971.56;;;26.32;70.35
33625;BME280;19962;47.820;1.930;2023-06-19T12:54:31;99987.63;;;26.31;70.29
33625;BME280;19962;47.820;1.930;2023-06-19T12:56:57;99986.81;;;26.31;70.91
33625;BME280;19962;47.820;1.930;2023-06-19T12:59:23;99978.38;;;26.31;70.84